Time;durP1;ratioP1;P1;durP2;ratioP2;P2;SDS_P1;SDS_P2;PMS_P1;PMS_P2;Temp;Humidity;BMP_temperature;BMP_pressure;BME280_temperature;BME280_humidity;BME280_pressure;Samples;Min_cycle;Max_cycle;Signal;HPM_P1;HPM_P2
2022/09/26 00:01:09;;;;;;;29.02;5.78;;;;;;;13.76;100.00;97353.81;4941036;28;20763;-56
2022/09/26 00:03:35;;;;;;;34.35;6.25;;;;;;;13.88;100.00;97356.50;4939621;29;20031;-57
2022/09/26 00:06:03;;;;;;;32.47;5.45;;;;;;;14.07;100.00;97361.38;4941688;28;20634;-57
2022/09/26 00:08:28;;;;;;;34.75;6.97;;;;;;;13.71;100.00;97350.66;4940548;28;20203;-55
2022/09/26 00:10:57;;;;;;;31.50;6.43;;;;;;;13.76;100.00;97349.41;4940488;28;20935;-57
2022/09/26 00:13:22;;;;;;;33.67;6.72;;;;;;;13.72;100.00;97345.31;4939826;29;20027;-55
2022/09/26 00:15:48;;;;;;;29.35;5.95;;;;;;;13.49;100.00;97342.38;4939215;28;20201;-57
2022/09/26 00:18:13;;;;;;;38.22;6.78;;;;;;;13.77;100.00;97334.53;4938524;29;20125;-58
2022/09/26 00:20:38;;;;;;;36.72;6.10;;;;;;;14.01;100.00;97335.56;4939602;28;20093;-57
2022/09/26 00:23:04;;;;;;;32.92;6.63;;;;;;;13.62;100.00;97337.22;4940099;29;20110;-54
2022/09/26 00:25:29;;;;;;;33.78;7.35;;;;;;;13.35;100.00;97341.56;4939256;28;20097;-54
2022/09/26 00:27:54;;;;;;;32.08;6.53;;;;;;;13.64;100.00;97339.72;4938151;29;20078;-57
2022/09/26 00:30:20;;;;;;;27.00;6.03;;;;;;;13.57;100.00;97333.19;4939739;28;20033;-55
2022/09/26 00:32:45;;;;;;;39.58;7.45;;;;;;;13.54;100.00;97333.38;4937324;29;20035;-55
2022/09/26 00:35:10;;;;;;;27.70;6.25;;;;;;;13.80;100.00;97326.47;4938404;28;20028;-54
2022/09/26 00:37:36;;;;;;;27.60;5.90;;;;;;;13.94;100.00;97336.91;4938014;29;20091;-55
2022/09/26 00:40:01;;;;;;;33.17;7.00;;;;;;;14.01;100.00;97327.69;4939986;29;20123;-55
2022/09/26 00:42:26;;;;;;;32.85;6.75;;;;;;;13.75;100.00;97328.53;4940066;28;20031;-55
2022/09/26 00:44:55;;;;;;;34.70;6.28;;;;;;;14.36;100.00;97327.13;4941371;29;20118;-55
2022/09/26 00:47:42;;;;;;;32.75;5.93;;;;;;;14.02;100.00;97328.53;4938187;28;20100;-58
2022/09/26 00:50:25;;;;;;;35.53;7.05;;;;;;;13.66;100.00;97325.56;4938235;28;20509;-57
2022/09/26 00:52:56;;;;;;;32.92;6.40;;;;;;;13.97;100.00;97331.47;4938360;28;20036;-56
2022/09/26 00:55:27;;;;;;;37.15;7.15;;;;;;;13.59;100.00;97331.31;4937962;28;20031;-56
2022/09/26 00:57:59;;;;;;;34.80;6.60;;;;;;;13.81;100.00;97330.78;4938351;29;20037;-57
2022/09/26 01:00:25;;;;;;;30.40;6.22;;;;;;;13.61;100.00;97335.50;4936229;28;20273;-56
2022/09/26 01:02:52;;;;;;;34.65;7.05;;;;;;;13.47;100.00;97335.53;4940296;28;20102;-55
2022/09/26 01:05:20;;;;;;;35.15;7.65;;;;;;;13.61;100.00;97325.03;4939439;28;20027;-57
2022/09/26 01:07:46;;;;;;;31.13;6.40;;;;;;;13.52;100.00;97330.03;4938629;29;20054;-56
2022/09/26 01:10:14;;;;;;;39.60;7.75;;;;;;;13.28;100.00;97322.75;4938647;28;20195;-55
2022/09/26 01:12:40;;;;;;;34.60;6.93;;;;;;;13.42;100.00;97327.16;4938967;29;20019;-56
2022/09/26 01:15:07;;;;;;;32.78;6.13;;;;;;;13.47;100.00;97327.69;4938914;28;20051;-57
2022/09/26 01:17:34;;;;;;;33.80;7.00;;;;;;;13.55;100.00;97322.81;4937859;29;20031;-56
2022/09/26 01:20:21;;;;;;;40.70;7.72;;;;;;;13.42;100.00;97324.53;4937984;29;20767;-55
2022/09/26 01:23:24;;;;;;;37.47;6.53;;;;;;;13.57;100.00;97325.34;4938871;28;20382;-58
2022/09/26 01:25:52;;;;;;;;;;;;;;;13.38;100.00;97323.03;4938372;28;20035;-58
2022/09/26 01:28:33;;;;;;;37.60;6.25;;;;;;;13.86;100.00;97331.31;4938538;28;19917;-57
2022/09/26 01:30:59;;;;;;;33.55;6.93;;;;;;;13.27;100.00;97328.91;4938464;28;21076;-56
2022/09/26 01:33:33;;;;;;;37.00;8.17;;;;;;;13.22;100.00;97331.81;4939169;28;20023;-55
2022/09/26 01:36:24;;;;;;;33.88;7.40;;;;;;;13.17;100.00;97326.03;4937727;28;20266;-56
2022/09/26 01:39:25;;;;;;;33.47;6.40;;;;;;;13.64;100.00;97339.72;4938552;29;20636;-55
2022/09/26 01:42:08;;;;;;;32.88;6.82;;;;;;;14.44;100.00;97337.94;4940346;28;20145;-55
2022/09/26 01:44:45;;;;;;;33.50;5.78;;;;;;;13.98;100.00;97327.06;4937625;28;20046;-57
2022/09/26 01:47:20;;;;;;;26.45;5.97;;;;;;;13.88;100.00;97327.66;4938015;28;20043;-59
2022/09/26 01:49:56;;;;;;;38.38;7.07;;;;;;;14.11;100.00;97330.53;4938919;29;20030;-55
2022/09/26 01:52:34;;;;;;;35.90;6.95;;;;;;;14.01;100.00;97332.94;4938781;28;20113;-55
2022/09/26 01:55:04;;;;;;;33.05;7.28;;;;;;;14.31;100.00;97331.84;4940215;28;20034;-58
2022/09/26 01:57:40;;;;;;;37.35;5.35;;;;;;;15.28;100.00;97324.41;4938135;28;20532;-54
2022/09/26 02:00:07;;;;;;;45.00;7.55;;;;;;;14.31;100.00;97329.22;4935027;29;20635;-55
2022/09/26 02:02:42;;;;;;;27.50;6.90;;;;;;;13.87;100.00;97325.13;4935879;29;20544;-56
2022/09/26 02:05:16;;;;;;;31.60;7.10;;;;;;;14.24;100.00;97333.19;4936884;28;20692;-55
2022/09/26 02:07:52;;;;;;;35.80;7.78;;;;;;;13.36;100.00;97320.53;4936954;29;20548;-56
2022/09/26 02:10:24;;;;;;;33.78;7.65;;;;;;;14.16;100.00;97331.09;4935229;28;20062;-57
2022/09/26 02:12:53;;;;;;;30.77;8.02;;;;;;;13.46;100.00;97320.78;4939702;28;20043;-55
2022/09/26 02:15:22;;;;;;;39.33;8.75;;;;;;;13.72;100.00;97321.72;4936626;28;20131;-55
2022/09/26 02:18:02;;;;;;;32.45;5.47;;;;;;;14.14;100.00;97322.47;4937913;29;20034;-55
2022/09/26 02:20:31;;;;;;;29.48;7.10;;;;;;;13.75;100.00;97320.66;4938818;28;20049;-55
2022/09/26 02:22:58;;;;;;;39.03;9.35;;;;;;;13.22;100.00;97308.25;4939380;29;20023;-57
2022/09/26 02:25:24;;;;;;;30.77;6.88;;;;;;;13.99;100.00;97313.84;4937708;28;20130;-55
2022/09/26 02:27:50;;;;;;;38.42;8.38;;;;;;;13.92;100.00;97312.56;4936902;29;20168;-58
2022/09/26 02:30:15;;;;;;;43.10;8.43;;;;;;;14.26;100.00;97300.69;4937379;28;20452;-59
2022/09/26 02:32:41;;;;;;;32.10;6.90;;;;;;;14.48;100.00;97296.59;4938921;28;20035;-56
2022/09/26 02:37:51;;;;;;;26.08;4.93;;;;;;;14.55;100.00;97294.41;4937415;29;20110;-57
2022/09/26 02:40:19;;;;;;;30.40;7.20;;;;;;;13.72;100.00;97299.94;4936531;28;20042;-55
2022/09/26 02:43:10;;;;;;;27.77;5.35;;;;;;;14.24;100.00;97296.47;4937777;28;20031;-55
2022/09/26 02:45:46;;;;;;;40.17;8.27;;;;;;;13.62;100.00;97300.53;4936797;28;20130;-55
2022/09/26 02:48:27;;;;;;;35.25;7.63;;;;;;;13.90;100.00;97292.66;4937787;29;20681;-55
2022/09/26 02:51:20;;;;;;;35.72;9.18;;;;;;;13.23;100.00;97296.00;4935590;28;20039;-58
2022/09/26 02:53:54;;;;;;;39.50;8.82;;;;;;;13.44;100.00;97299.09;4938800;28;20035;-57
2022/09/26 02:56:36;;;;;;;37.35;9.65;;;;;;;13.48;100.00;97295.31;4937158;28;20039;-55
2022/09/26 02:59:20;;;;;;;34.05;7.22;;;;;;;13.44;100.00;97293.84;4936040;29;20125;-55
2022/09/26 03:01:48;;;;;;;34.35;6.43;;;;;;;13.48;100.00;97287.47;4936644;28;20028;-56
2022/09/26 03:04:19;;;;;;;32.60;7.85;;;;;;;13.64;100.00;97287.31;4937471;29;20035;-57
2022/09/26 03:06:49;;;;;;;63.47;10.00;;;;;;;13.49;100.00;97295.22;4937590;28;20043;-55
2022/09/26 03:09:17;;;;;;;41.92;9.63;;;;;;;13.09;100.00;97291.63;4937975;29;20409;-56
2022/09/26 03:11:43;;;;;;;36.63;8.30;;;;;;;13.24;100.00;97290.66;4936437;28;20028;-57
2022/09/26 03:14:11;;;;;;;43.92;9.40;;;;;;;13.12;100.00;97291.44;4936335;28;20067;-55
2022/09/26 03:16:40;;;;;;;54.58;10.95;;;;;;;13.29;100.00;97290.38;4938570;28;20035;-56
2022/09/26 03:19:15;;;;;;;35.45;7.47;;;;;;;13.54;100.00;97289.69;4936529;29;20057;-55
2022/09/26 03:21:41;;;;;;;41.67;9.20;;;;;;;13.21;100.00;97280.38;4937818;28;20043;-55
2022/09/26 03:24:07;;;;;;;45.95;9.05;;;;;;;13.28;100.00;97272.97;4935148;28;20034;-54
2022/09/26 03:26:34;;;;;;;47.28;9.40;;;;;;;13.30;100.00;97269.34;4936332;28;20039;-55
2022/09/26 03:28:59;;;;;;;42.00;8.32;;;;;;;13.40;100.00;97280.09;4935570;28;20028;-57
2022/09/26 03:31:25;;;;;;;29.80;7.55;;;;;;;13.39;100.00;97277.56;4936276;28;20035;-55
2022/09/26 03:33:51;;;;;;;42.97;9.60;;;;;;;13.14;100.00;97276.50;4935233;29;20035;-58
2022/09/26 03:36:17;;;;;;;38.00;7.68;;;;;;;13.45;100.00;97287.66;4936951;28;20039;-57
2022/09/26 03:38:43;;;;;;;35.58;7.85;;;;;;;13.50;100.00;97273.31;4936232;29;20617;-58
2022/09/26 03:41:09;;;;;;;41.03;8.38;;;;;;;13.20;100.00;97270.84;4936060;28;20655;-58
2022/09/26 03:43:35;;;;;;;45.05;9.45;;;;;;;13.36;100.00;97268.16;4936527;29;20031;-55
2022/09/26 03:46:06;;;;;;;39.30;8.52;;;;;;;13.25;100.00;97260.94;4936541;28;20630;-55
2022/09/26 03:48:32;;;;;;;32.78;6.82;;;;;;;13.41;100.00;97265.22;4937307;29;20046;-55
2022/09/26 03:51:04;;;;;;;43.78;9.95;;;;;;;12.81;100.00;97261.94;4936827;28;20035;-56
2022/09/26 03:53:33;;;;;;;38.47;7.78;;;;;;;13.27;100.00;97269.53;4937400;29;20118;-55
2022/09/26 03:56:25;;;;;;;35.03;8.10;;;;;;;13.19;100.00;97258.69;4937458;28;20371;-55
2022/09/26 03:58:51;;;;;;;36.33;7.40;;;;;;;13.89;100.00;97270.81;4937808;28;20043;-55
2022/09/26 04:01:20;;;;;;;39.05;8.68;;;;;;;13.39;100.00;97272.34;4935661;28;20051;-55
2022/09/26 04:03:46;;;;;;;37.55;8.10;;;;;;;12.96;100.00;97260.16;4936572;29;21033;-56
2022/09/26 04:06:14;;;;;;;44.83;9.98;;;;;;;12.93;100.00;97258.53;4935784;28;20035;-56
2022/09/26 04:08:41;;;;;;;39.83;9.77;;;;;;;12.99;100.00;97248.63;4937914;29;20054;-57
2022/09/26 04:11:12;;;;;;;40.05;9.48;;;;;;;13.18;100.00;97248.31;4940126;28;20500;-56
2022/09/26 04:13:38;;;;;;;38.03;7.65;;;;;;;13.56;100.00;97251.13;4939628;29;20031;-56
2022/09/26 04:16:05;;;;;;;45.63;9.88;;;;;;;13.28;100.00;97249.41;4940418;28;20043;-56
2022/09/26 04:18:32;;;;;;;39.20;9.50;;;;;;;13.09;100.00;97249.75;4938842;29;20038;-55
2022/09/26 04:20:57;;;;;;;33.50;8.20;;;;;;;12.92;100.00;97249.03;4937892;28;20059;-55
2022/09/26 04:23:26;;;;;;;29.58;7.53;;;;;;;13.29;100.00;97246.69;4940200;29;20179;-55
2022/09/26 04:25:51;;;;;;;35.15;8.73;;;;;;;13.00;100.00;97247.72;4939185;28;20066;-56
2022/09/26 04:28:16;;;;;;;35.88;8.35;;;;;;;13.64;100.00;97245.41;4939395;29;20031;-58
2022/09/26 04:30:42;;;;;;;46.40;9.60;;;;;;;13.30;100.00;97237.91;4938457;28;20032;-58
2022/09/26 04:33:07;;;;;;;34.75;8.40;;;;;;;13.12;100.00;97236.44;4940116;28;20941;-58
2022/09/26 04:35:32;;;;;;;35.85;8.00;;;;;;;12.98;100.00;97236.50;4940785;28;20089;-55
2022/09/26 04:37:58;;;;;;;37.08;8.95;;;;;;;13.42;100.00;97240.72;4939592;29;20027;-55
2022/09/26 04:40:23;;;;;;;42.38;9.20;;;;;;;13.00;100.00;97234.63;4937724;28;20043;-55
2022/09/26 04:42:48;;;;;;;44.70;9.57;;;;;;;12.71;100.00;97237.28;4938989;29;20039;-57
2022/09/26 04:45:14;;;;;;;43.75;10.55;;;;;;;12.65;100.00;97235.88;4939808;28;20035;-55
2022/09/26 04:47:39;;;;;;;39.45;9.65;;;;;;;12.51;100.00;97239.31;4936802;29;20150;-57
2022/09/26 04:50:05;;;;;;;40.95;9.02;;;;;;;12.85;100.00;97232.03;4939294;29;20771;-56
2022/09/26 04:52:30;;;;;;;49.25;10.57;;;;;;;12.66;100.00;97227.09;4938066;28;20044;-55
2022/09/26 04:54:56;;;;;;;40.38;9.75;;;;;;;12.57;100.00;97232.03;4937822;28;20589;-55
2022/09/26 04:57:21;;;;;;;43.42;9.77;;;;;;;12.40;100.00;97231.28;4934160;28;20046;-57
2022/09/26 04:59:46;;;;;;;39.78;9.02;;;;;;;12.94;100.00;97225.38;4937239;29;20723;-58
2022/09/26 05:02:12;;;;;;;50.08;10.93;;;;;;;12.33;100.00;97219.53;4935252;28;20032;-55
2022/09/26 05:04:37;;;;;;;48.58;10.10;;;;;;;12.78;100.00;97227.28;4938298;29;20031;-55
2022/09/26 05:07:03;;;;;;;35.58;8.10;;;;;;;12.65;100.00;97217.56;4938129;28;20043;-55
2022/09/26 05:09:28;;;;;;;44.88;8.60;;;;;;;12.69;100.00;97212.97;4940104;28;20079;-55
2022/09/26 05:11:53;;;;;;;38.55;9.15;;;;;;;12.62;100.00;97220.34;4938836;28;20047;-55
2022/09/26 05:14:19;;;;;;;43.65;9.65;;;;;;;12.59;100.00;97219.72;4937919;29;20027;-54
2022/09/26 05:16:44;;;;;;;53.33;9.95;;;;;;;12.73;100.00;97225.75;4937348;28;20039;-54
2022/09/26 05:19:09;;;;;;;39.65;9.30;;;;;;;12.65;100.00;97217.56;4939139;28;20038;-54
2022/09/26 05:21:34;;;;;;;41.65;7.85;;;;;;;12.44;100.00;97217.13;4934717;28;20050;-55
2022/09/26 05:26:48;;;;;;;54.75;9.43;;;;;;;12.93;100.00;97221.91;4937855;28;20058;-57
2022/09/26 05:29:14;;;;;;;44.42;9.13;;;;;;;13.06;100.00;97219.34;4937521;28;20050;-55
2022/09/26 05:31:40;;;;;;;36.40;7.72;;;;;;;13.15;100.00;97222.34;4939599;28;20039;-56
2022/09/26 05:34:09;;;;;;;40.28;8.52;;;;;;;12.91;100.00;97210.69;4935305;28;20034;-58
2022/09/26 05:36:35;;;;;;;55.35;10.05;;;;;;;12.72;100.00;97220.66;4937751;28;20062;-55
2022/09/26 05:39:01;;;;;;;45.05;9.48;;;;;;;12.85;100.00;97221.56;4938889;29;20052;-55
2022/09/26 05:41:28;;;;;;;39.40;8.65;;;;;;;12.80;100.00;97222.78;4937949;28;20478;-55
2022/09/26 05:43:54;;;;;;;42.80;9.02;;;;;;;12.63;100.00;97223.84;4938625;29;20244;-58
2022/09/26 05:46:20;;;;;;;45.72;9.38;;;;;;;12.80;100.00;97231.47;4935696;28;20042;-56
2022/09/26 05:48:45;;;;;;;46.50;9.57;;;;;;;12.86;100.00;97232.88;4936987;29;20035;-56
2022/09/26 05:51:13;;;;;;;46.00;8.70;;;;;;;13.05;100.00;97229.91;4937759;28;20035;-56
2022/09/26 05:53:40;;;;;;;59.00;12.88;;;;;;;12.69;100.00;97231.28;4937432;29;20028;-56
2022/09/26 05:56:06;;;;;;;66.78;14.93;;;;;;;12.93;100.00;97221.91;4937146;28;20118;-57
2022/09/26 05:58:33;;;;;;;57.38;13.35;;;;;;;12.67;100.00;97223.53;4935988;28;20051;-57
2022/09/26 06:01:10;;;;;;;66.35;13.70;;;;;;;12.73;100.00;97219.69;4936509;28;20051;-56
2022/09/26 06:03:36;;;;;;;40.60;10.80;;;;;;;12.98;100.00;97226.88;4934631;29;20082;-56
2022/09/26 06:06:06;;;;;;;46.58;11.32;;;;;;;12.79;100.00;97221.97;4938649;28;20050;-56
2022/09/26 06:08:33;;;;;;;43.17;10.38;;;;;;;12.91;100.00;97215.94;4937040;28;20615;-56
2022/09/26 06:11:02;;;;;;;43.05;10.25;;;;;;;13.13;100.00;97225.06;4937127;28;20040;-55
2022/09/26 06:13:28;;;;;;;40.33;9.00;;;;;;;13.03;100.00;97219.56;4939020;28;20024;-57
2022/09/26 06:15:54;;;;;;;38.92;9.65;;;;;;;13.61;100.00;97214.16;4936919;28;20035;-56
2022/09/26 06:18:19;;;;;;;43.65;10.80;;;;;;;13.85;100.00;97206.44;4937782;29;20035;-56
2022/09/26 06:20:45;;;;;;;45.15;9.40;;;;;;;14.48;100.00;97209.19;4937918;28;20046;-58
2022/09/26 06:23:10;;;;;;;50.05;10.30;;;;;;;14.82;100.00;97205.91;4937811;29;20505;-57
2022/09/26 06:25:35;;;;;;;30.58;8.52;;;;;;;15.16;100.00;97195.63;4938942;28;20050;-56
2022/09/26 06:28:01;;;;;;;38.67;8.23;;;;;;;15.58;100.00;97201.28;4937840;29;20028;-57
2022/09/26 06:30:26;;;;;;;37.13;8.23;;;;;;;17.17;100.00;97193.53;4937381;28;20031;-58
2022/09/26 06:32:52;;;;;;;29.40;7.43;;;;;;;17.25;100.00;97177.97;4938463;29;20031;-57
2022/09/26 06:35:21;;;;;;;37.88;7.88;;;;;;;18.17;100.00;97170.34;4937257;28;20077;-56
2022/09/26 06:37:47;;;;;;;32.92;7.10;;;;;;;18.12;100.00;97156.69;4934044;29;20485;-59
2022/09/26 06:40:12;;;;;;;36.42;6.97;;;;;;;19.09;100.00;97150.13;4936762;28;20070;-57
2022/09/26 06:42:38;;;;;;;29.35;7.03;;;;;;;19.83;100.00;97142.50;4936920;28;20713;-58
2022/09/26 06:45:08;;;;;;;28.58;6.53;;;;;;;20.84;100.00;97149.81;4935187;28;20444;-57
2022/09/26 06:47:34;;;;;;;31.00;6.90;;;;;;;19.48;100.00;97152.78;4937458;29;20120;-57
2022/09/26 06:50:01;;;;;;;27.88;7.10;;;;;;;18.97;100.00;97142.31;4937992;29;20027;-57
2022/09/26 06:52:28;;;;;;;34.50;7.05;;;;;;;16.53;100.00;97150.31;4938977;28;20043;-57
2022/09/26 06:54:54;;;;;;;27.08;7.03;;;;;;;16.32;100.00;97161.56;4938007;29;20163;-59
2022/09/26 06:57:20;;;;;;;32.83;7.30;;;;;;;16.82;100.00;97150.63;4936994;28;20069;-59
2022/09/26 06:59:45;;;;;;;28.98;7.15;;;;;;;17.60;100.00;97150.50;4937369;28;20066;-59
2022/09/26 07:02:11;;;;;;;32.35;7.82;;;;;;;18.74;100.00;97140.84;4937805;28;20043;-60
2022/09/26 07:04:36;;;;;;;36.20;8.18;;;;;;;17.67;100.00;97138.50;4937043;28;20226;-60
2022/09/26 07:07:02;;;;;;;31.35;7.07;;;;;;;17.09;100.00;97141.47;4935842;28;20126;-57
2022/09/26 07:09:27;;;;;;;34.92;7.85;;;;;;;17.43;100.00;97142.19;4937336;29;20106;-59
2022/09/26 07:11:53;;;;;;;35.05;7.78;;;;;;;19.36;100.00;97131.75;4937053;28;20654;-56
2022/09/26 07:14:19;;;;;;;35.05;7.93;;;;;;;20.09;100.00;97136.59;4936387;29;20027;-58
2022/09/26 07:16:44;;;;;;;39.70;8.77;;;;;;;18.08;100.00;97139.44;4935216;28;20344;-59
2022/09/26 07:19:15;;;;;;;28.40;7.45;;;;;;;17.48;100.00;97142.66;4938831;29;20034;-57
2022/09/26 07:21:40;;;;;;;32.40;7.63;;;;;;;17.38;100.00;97147.00;4937292;28;20046;-57
2022/09/26 07:24:06;;;;;;;33.65;7.60;;;;;;;17.07;100.00;97143.41;4937898;29;20027;-58
2022/09/26 07:26:32;;;;;;;34.42;8.20;;;;;;;16.76;100.00;97151.97;4936505;28;20054;-57
2022/09/26 07:28:57;;;;;;;34.17;8.13;;;;;;;17.72;100.00;97149.50;4938331;29;20028;-59
2022/09/26 07:31:23;;;;;;;27.85;7.78;;;;;;;19.42;100.00;97141.78;4937621;28;20043;-60
2022/09/26 07:33:48;;;;;;;32.65;7.75;;;;;;;18.47;100.00;97135.19;4936675;29;20027;-60
2022/09/26 07:36:14;;;;;;;36.00;8.45;;;;;;;18.35;100.00;97138.91;4938214;28;20284;-58
2022/09/26 07:38:40;;;;;;;27.42;7.35;;;;;;;21.99;100.00;97145.59;4936325;28;20682;-58
2022/09/26 07:41:09;;;;;;;37.17;8.40;;;;;;;21.55;100.00;97135.78;4936956;28;20063;-60
2022/09/26 07:43:34;;;;;;;28.67;7.88;;;;;;;21.36;100.00;97142.06;4938878;28;20705;-58
2022/09/26 07:51:29;;;;;;;28.65;8.00;;;;;;;23.34;100.00;97135.22;4939035;28;20077;-57
2022/09/26 07:53:55;;;;;;;24.67;7.82;;;;;;;21.92;99.45;97134.75;4941668;29;20086;-58
2022/09/26 07:56:21;;;;;;;33.92;7.57;;;;;;;24.96;86.54;97134.28;4939300;28;20043;-57
2022/09/26 07:58:47;;;;;;;22.52;7.32;;;;;;;22.42;99.28;97124.44;4940836;29;20062;-58
2022/09/26 08:01:15;;;;;;;26.67;8.27;;;;;;;22.99;79.89;97131.78;4939853;28;20601;-57
2022/09/26 08:03:42;;;;;;;33.10;7.25;;;;;;;24.30;86.98;97126.53;4939114;29;20023;-57
2022/09/26 08:06:08;;;;;;;26.70;7.38;;;;;;;23.36;82.31;97133.22;4940991;28;20118;-58
2022/09/26 08:08:34;;;;;;;28.40;7.60;;;;;;;22.68;83.04;97129.69;4938481;28;20027;-57
2022/09/26 08:11:00;;;;;;;21.33;6.97;;;;;;;23.72;79.13;97122.25;4939068;28;20039;-58
2022/09/26 08:13:28;;;;;;;26.92;8.23;;;;;;;23.58;81.21;97123.75;4941946;28;20703;-57
2022/09/26 08:15:54;;;;;;;26.27;7.78;;;;;;;23.78;78.12;97133.06;4941456;28;20044;-57
2022/09/26 08:18:19;;;;;;;24.23;7.00;;;;;;;24.32;76.00;97129.03;4940168;29;20042;-58
2022/09/26 08:20:46;;;;;;;21.63;6.65;;;;;;;25.36;74.38;97138.59;4940869;28;20626;-59
2022/09/26 08:23:15;;;;;;;20.58;6.45;;;;;;;21.14;82.11;97129.25;4941674;28;20041;-58
2022/09/26 08:25:41;;;;;;;26.05;6.85;;;;;;;24.86;78.02;97115.00;4939559;28;20039;-57
2022/09/26 08:28:11;;;;;;;24.10;6.75;;;;;;;24.24;76.45;97121.88;4940700;28;20085;-60
2022/09/26 08:30:36;;;;;;;22.17;6.43;;;;;;;26.48;67.19;97121.88;4940228;28;20031;-60
2022/09/26 08:33:02;;;;;;;20.27;5.88;;;;;;;25.12;73.44;97115.50;4939373;29;20223;-59
2022/09/26 08:35:31;;;;;;;23.42;5.72;;;;;;;26.93;63.67;97119.19;4940224;28;20109;-57
2022/09/26 08:38:00;;;;;;;21.65;6.55;;;;;;;26.98;63.41;97111.41;4938510;29;20685;-57
2022/09/26 08:40:34;;;;;;;21.27;6.60;;;;;;;23.74;66.90;97107.78;4936854;28;20552;-59
2022/09/26 08:43:11;;;;;;;20.60;6.43;;;;;;;24.35;68.28;97108.16;4939397;29;20022;-60
2022/09/26 08:48:55;;;;;;;19.30;5.70;;;;;;;22.06;72.19;97101.50;4940135;29;20438;-57
2022/09/26 08:51:45;;;;;;;23.40;6.80;;;;;;;22.75;71.02;97098.81;4937890;28;20039;-58
2022/09/26 08:54:16;;;;;;;21.70;6.10;;;;;;;25.10;62.18;97106.84;4937829;29;20074;-57
2022/09/26 08:57:12;;;;;;;32.08;6.85;;;;;;;25.07;64.39;97096.56;4939048;28;20861;-57
2022/09/26 08:59:44;;;;;;;24.98;6.47;;;;;;;22.62;71.80;97093.13;4937047;29;20390;-58
2022/09/26 09:02:25;;;;;;;22.40;5.63;;;;;;;22.43;71.22;97089.75;4939188;28;20039;-57
2022/09/26 09:05:05;;;;;;;18.25;5.53;;;;;;;22.36;71.48;97094.03;4940972;28;20649;-58
2022/09/26 09:07:30;;;;;;;24.60;5.90;;;;;;;23.26;68.84;97091.63;4937331;29;20047;-60
2022/09/26 09:10:01;;;;;;;23.63;5.97;;;;;;;24.84;68.92;97088.50;4940419;28;20027;-58
2022/09/26 09:12:49;;;;;;;19.70;4.68;;;;;;;26.15;63.58;97105.38;4936918;28;20039;-57
2022/09/26 09:15:20;;;;;;;27.75;6.10;;;;;;;27.45;49.81;97107.38;4938342;28;20548;-61
2022/09/26 09:18:36;;;;;;;25.25;6.05;;;;;;;22.89;60.30;97095.53;4937911;29;20031;-58
2022/09/26 09:21:14;;;;;;;19.85;5.05;;;;;;;21.75;74.71;97088.69;4963633;28;20129;-59
2022/09/26 09:23:48;;;;;;;23.55;5.68;;;;;;;21.70;76.78;97077.69;4962714;28;20053;-57
2022/09/26 09:26:20;;;;;;;21.42;5.22;;;;;;;23.39;70.13;97085.00;4947359;28;20668;-57
2022/09/26 09:29:06;;;;;;;22.90;5.32;;;;;;;23.03;70.58;97071.97;4940161;29;20026;-57
2022/09/26 09:31:39;;;;;;;21.42;5.07;;;;;;;22.96;66.62;97069.16;4938688;28;20081;-57
2022/09/26 09:34:10;;;;;;;17.70;4.93;;;;;;;20.32;76.22;97060.25;4937825;29;20059;-57
2022/09/26 09:36:47;;;;;;;32.23;6.70;;;;;;;20.21;78.64;97058.63;4937439;28;20047;-56
2022/09/26 09:39:25;;;;;;;22.73;5.32;;;;;;;19.71;86.87;97045.69;4939333;29;20184;-57
2022/09/26 09:41:57;;;;;;;23.77;5.30;;;;;;;20.02;91.10;97048.16;4938256;28;20464;-56
2022/09/26 09:44:37;;;;;;;27.67;5.45;;;;;;;20.18;85.20;97053.66;4938545;29;20030;-57
2022/09/26 09:47:13;;;;;;;24.20;5.32;;;;;;;18.36;100.00;97049.97;4937208;28;20039;-57
2022/09/26 09:49:40;;;;;;;27.85;5.82;;;;;;;19.24;100.00;97043.00;4937026;29;20727;-57
2022/09/26 09:52:23;;;;;;;27.08;5.60;;;;;;;18.86;100.00;97034.94;4937111;28;20406;-56
2022/09/26 09:55:16;;;;;;;23.65;5.25;;;;;;;19.24;100.00;97035.91;4937051;29;20118;-58
2022/09/26 09:57:51;;;;;;;30.02;5.78;;;;;;;18.44;100.00;97029.84;4938979;29;20081;-56
2022/09/26 10:00:19;;;;;;;27.92;5.00;;;;;;;18.35;100.00;97029.84;4936395;28;20034;-56
2022/09/26 10:03:00;;;;;;;29.52;4.78;;;;;;;18.34;100.00;97033.44;4938487;29;20031;-56
2022/09/26 10:05:46;;;;;;;21.35;4.18;;;;;;;18.72;100.00;97027.38;4938013;28;20043;-56
2022/09/26 10:08:30;;;;;;;24.70;4.40;;;;;;;18.24;100.00;97028.97;4935590;28;20037;-56
2022/09/26 10:11:33;;;;;;;28.13;4.97;;;;;;;18.75;100.00;97029.75;4938029;28;20035;-59
2022/09/26 10:14:05;;;;;;;27.33;4.57;;;;;;;19.37;100.00;97019.75;4939164;29;20086;-56
2022/09/26 10:16:33;;;;;;;29.65;4.55;;;;;;;19.23;100.00;97014.91;4938200;28;20039;-57
2022/09/26 10:19:07;;;;;;;27.13;4.55;;;;;;;18.82;100.00;97016.84;4938304;29;20027;-57
2022/09/26 10:21:34;;;;;;;25.58;4.45;;;;;;;18.41;100.00;97010.81;4937978;28;20032;-57
2022/09/26 10:24:03;;;;;;;28.70;4.90;;;;;;;18.91;100.00;97004.63;4937651;29;20016;-56
2022/09/26 10:26:35;;;;;;;29.65;4.78;;;;;;;18.39;100.00;97004.81;4937503;28;20066;-57
2022/09/26 10:29:07;;;;;;;;;;;;;;;18.15;100.00;97008.66;4937765;28;20023;-57
2022/09/26 10:31:37;;;;;;;28.38;4.70;;;;;;;18.43;100.00;97001.75;4937336;28;20000;-57
2022/09/26 10:34:31;;;;;;;27.45;4.55;;;;;;;18.67;100.00;96996.13;4935889;29;20219;-59
2022/09/26 10:37:21;;;;;;;24.45;4.25;;;;;;;19.72;100.00;97002.41;4935817;28;20921;-59
2022/09/26 10:42:38;;;;;;;26.73;4.47;;;;;;;18.85;100.00;96995.44;4937602;29;20066;-59
2022/09/26 10:45:14;;;;;;;19.08;3.75;;;;;;;18.09;100.00;96993.38;4937314;28;20102;-57
2022/09/26 10:47:44;;;;;;;31.08;5.38;;;;;;;17.70;100.00;96993.22;4938198;28;20028;-57
2022/09/26 10:50:16;;;;;;;27.95;5.03;;;;;;;17.75;100.00;96985.72;4937099;28;20058;-57
2022/09/26 10:52:47;;;;;;;38.25;6.53;;;;;;;17.82;100.00;96978.94;4939221;28;20023;-57
2022/09/26 10:55:24;;;;;;;27.33;5.20;;;;;;;18.62;100.00;96990.41;4938253;28;20059;-56
2022/09/26 10:57:56;;;;;;;28.40;4.95;;;;;;;18.50;100.00;96984.41;4935396;29;20142;-59
2022/09/26 11:00:36;;;;;;;26.17;4.53;;;;;;;19.06;100.00;96987.38;4934331;28;20039;-57
2022/09/26 11:03:41;;;;;;;35.78;5.25;;;;;;;18.58;100.00;96988.16;4936343;28;20101;-57
2022/09/26 11:06:30;;;;;;;28.70;5.00;;;;;;;18.43;100.00;96974.53;4937112;28;20039;-56
2022/09/26 11:09:01;;;;;;;29.63;4.90;;;;;;;19.38;100.00;96971.16;4937513;28;20035;-57
2022/09/26 11:11:32;;;;;;;26.08;4.72;;;;;;;19.67;94.10;96979.97;4937393;28;20035;-57
2022/09/26 11:14:02;;;;;;;29.63;4.60;;;;;;;20.22;87.17;96975.59;4937225;29;20058;-56
2022/09/26 11:16:36;;;;;;;32.30;4.60;;;;;;;20.87;82.01;96971.13;4936891;28;20154;-57
2022/09/26 11:19:18;;;;;;;27.10;4.38;;;;;;;20.38;81.31;96971.44;4942122;29;20654;-56
2022/09/26 11:21:54;;;;;;;30.20;4.70;;;;;;;20.52;81.09;96959.50;4941780;28;20039;-56
2022/09/26 11:24:36;;;;;;;23.20;3.92;;;;;;;20.55;76.78;96965.34;4940774;28;20219;-55
2022/09/26 11:27:13;;;;;;;21.90;3.80;;;;;;;19.65;71.76;96959.81;4940371;28;20527;-58
2022/09/26 11:29:48;;;;;;;26.33;4.25;;;;;;;19.96;75.17;96958.72;4941248;29;20081;-58
2022/09/26 11:32:24;;;;;;;27.08;4.47;;;;;;;19.62;77.34;96953.97;4942185;28;20054;-58
2022/09/26 11:34:53;;;;;;;28.58;4.65;;;;;;;18.56;81.96;96946.06;4941121;29;20027;-59
2022/09/26 11:37:25;;;;;;;26.40;4.28;;;;;;;18.56;87.27;96938.13;4939898;28;20040;-57
2022/09/26 11:40:08;;;;;;;25.73;4.22;;;;;;;19.13;88.14;96945.34;4940753;29;20027;-57
2022/09/26 11:42:33;;;;;;;30.98;4.85;;;;;;;19.55;87.43;96944.97;4940764;29;20121;-56
2022/09/26 11:45:07;;;;;;;28.55;5.25;;;;;;;18.74;85.73;96940.09;4940275;28;20055;-55
2022/09/26 11:47:48;;;;;;;32.55;5.60;;;;;;;18.65;87.85;96939.94;4940237;29;20412;-56
2022/09/26 11:50:20;;;;;;;27.45;5.30;;;;;;;18.96;93.44;96923.97;4939444;28;20026;-55
2022/09/26 11:53:08;;;;;;;28.00;4.90;;;;;;;18.73;93.36;96922.56;4940388;29;20031;-55